Hovedside
METAR-TAF:

METAR-TAF

Lufthavner :

Palanga internasjonale lufthavn

Palanga, Litauen

breddegrad: 55-55-12N, lengdegrad: 021-03E, høyde over havet: 10 m

Gjeldene værobservasjon

Denne rapporten ble laget for 22 minutter siden, klokken 15:20 UTC
Vind 6 kt fra Nord-nordvest, skiftende mellom Vest og Nord-nordøst
Temperatur 14°C
Luftfuktighet 44%
Trykk 1033 hPa
Sikt 10 km eller mer
ingen skyer under 1500 m og ingen bygeskyer

METAR: EYPA 181520Z 33006KT 280V020 CAVOK 14/02 Q1033

Tid: 18:42 (15:42 UTC)

Varsel

Denne rapporten ble laget for 4 timer og 41 minutter siden, klokken 11:01 UTC
Varsel gyldig fra 18. klokken 12 UTC til 19. klokken 12 UTC
Vind 4 kt fra skiftende retning
Sikt 10 km eller mer
ingen skyer under 1500 m og ingen bygeskyer
Midlertidig
fra 18. klokken 12 UTC til 18. klokken 16 UTC
Vind 14 kt fra Nord-nordvest

TAF: EYPA 181101Z 1812/1912 VRB04KT CAVOK TEMPO 1812/1816 34014KT

Værobservasjoner og værvarsel for over 4000 flyplasser (METAR- og TAF-rapporter).

Tilgjengelige stasjoner er representert av de røde og gule prikkene på kartet.

Hold musepekeren over prikken for å se navnet på stasjonen.

Klikk så for å se værobservasjoner og -varsler.

For å forandre kartet kan du klikke på den grønne knappen med svart kryss for å zoome inn, på den grønne knappen med strek for å zoome ut, eller på de grønne pilene for å se tilstøtende kart.


METAR-TAF: